sensor_id;sensor_type;location;lat;lon;timestamp;pressure;altitude;pressure_sealevel;temperature
20733;BMP180;10527;52.124;5.196;2023-05-10T00:00:59;100702.00;;;25.20
20733;BMP180;10527;52.124;5.196;2023-05-10T00:03:26;100701.00;;;25.20
20733;BMP180;10527;52.124;5.196;2023-05-10T00:05:53;100693.00;;;25.20
20733;BMP180;10527;52.124;5.196;2023-05-10T00:08:20;100685.00;;;25.10
20733;BMP180;10527;52.124;5.196;2023-05-10T00:10:47;100676.00;;;25.10
20733;BMP180;10527;52.124;5.196;2023-05-10T00:13:14;100673.00;;;25.10
20733;BMP180;10527;52.124;5.196;2023-05-10T00:15:41;100675.00;;;25.10
20733;BMP180;10527;52.124;5.196;2023-05-10T00:18:07;100686.00;;;25.10
20733;BMP180;10527;52.124;5.196;2023-05-10T00:20:37;100683.00;;;25.10
20733;BMP180;10527;52.124;5.196;2023-05-10T00:23:04;100689.00;;;25.10
20733;BMP180;10527;52.124;5.196;2023-05-10T00:25:31;100691.00;;;25.10
20733;BMP180;10527;52.124;5.196;2023-05-10T00:27:59;100685.00;;;25.10
20733;BMP180;10527;52.124;5.196;2023-05-10T00:30:27;100689.00;;;25.10
20733;BMP180;10527;52.124;5.196;2023-05-10T00:32:54;100697.00;;;25.10
20733;BMP180;10527;52.124;5.196;2023-05-10T00:35:21;100694.00;;;25.10
20733;BMP180;10527;52.124;5.196;2023-05-10T00:37:48;100686.00;;;25.10
20733;BMP180;10527;52.124;5.196;2023-05-10T00:40:15;100697.00;;;25.00
20733;BMP180;10527;52.124;5.196;2023-05-10T00:42:42;100695.00;;;25.00
20733;BMP180;10527;52.124;5.196;2023-05-10T00:45:09;100689.00;;;25.00
20733;BMP180;10527;52.124;5.196;2023-05-10T00:47:36;100687.00;;;25.00
20733;BMP180;10527;52.124;5.196;2023-05-10T00:50:04;100687.00;;;25.00
20733;BMP180;10527;52.124;5.196;2023-05-10T00:52:32;100694.00;;;25.00
20733;BMP180;10527;52.124;5.196;2023-05-10T00:54:59;100694.00;;;25.00
20733;BMP180;10527;52.124;5.196;2023-05-10T00:57:30;100694.00;;;25.00
20733;BMP180;10527;52.124;5.196;2023-05-10T00:59:59;100696.00;;;25.00
20733;BMP180;10527;52.124;5.196;2023-05-10T01:02:25;100689.00;;;25.00
20733;BMP180;10527;52.124;5.196;2023-05-10T01:04:52;100692.00;;;25.00
20733;BMP180;10527;52.124;5.196;2023-05-10T01:07:19;100698.00;;;25.00
20733;BMP180;10527;52.124;5.196;2023-05-10T01:09:46;100700.00;;;25.00
20733;BMP180;10527;52.124;5.196;2023-05-10T01:12:14;100689.00;;;25.00
20733;BMP180;10527;52.124;5.196;2023-05-10T01:14:42;100690.00;;;24.90
20733;BMP180;10527;52.124;5.196;2023-05-10T01:17:10;100698.00;;;24.90
20733;BMP180;10527;52.124;5.196;2023-05-10T01:19:40;100695.00;;;24.90
20733;BMP180;10527;52.124;5.196;2023-05-10T01:22:19;100693.00;;;24.90
20733;BMP180;10527;52.124;5.196;2023-05-10T01:31:39;100696.00;;;24.90
20733;BMP180;10527;52.124;5.196;2023-05-10T01:34:21;100691.00;;;24.80
20733;BMP180;10527;52.124;5.196;2023-05-10T01:36:58;100692.00;;;24.80
20733;BMP180;10527;52.124;5.196;2023-05-10T01:40:08;100695.00;;;24.80
20733;BMP180;10527;52.124;5.196;2023-05-10T01:42:51;100696.00;;;24.80
20733;BMP180;10527;52.124;5.196;2023-05-10T01:45:32;100694.00;;;24.80
20733;BMP180;10527;52.124;5.196;2023-05-10T01:48:08;100691.00;;;24.80
20733;BMP180;10527;52.124;5.196;2023-05-10T01:50:40;100700.00;;;24.80
20733;BMP180;10527;52.124;5.196;2023-05-10T01:53:11;100697.00;;;24.80
20733;BMP180;10527;52.124;5.196;2023-05-10T01:55:50;100694.00;;;24.80
20733;BMP180;10527;52.124;5.196;2023-05-10T01:58:25;100706.00;;;24.80
20733;BMP180;10527;52.124;5.196;2023-05-10T02:00:55;100700.00;;;24.80
20733;BMP180;10527;52.124;5.196;2023-05-10T02:03:25;100701.00;;;24.80
20733;BMP180;10527;52.124;5.196;2023-05-10T02:05:54;100704.00;;;24.80
20733;BMP180;10527;52.124;5.196;2023-05-10T02:08:24;100711.00;;;24.80
20733;BMP180;10527;52.124;5.196;2023-05-10T02:10:55;100698.00;;;24.80
20733;BMP180;10527;52.124;5.196;2023-05-10T02:13:25;100707.00;;;24.80
20733;BMP180;10527;52.124;5.196;2023-05-10T02:15:54;100715.00;;;24.70
20733;BMP180;10527;52.124;5.196;2023-05-10T02:18:25;100719.00;;;24.70
20733;BMP180;10527;52.124;5.196;2023-05-10T02:20:54;100725.00;;;24.60
20733;BMP180;10527;52.124;5.196;2023-05-10T02:23:24;100719.00;;;24.60
20733;BMP180;10527;52.124;5.196;2023-05-10T02:25:53;100725.00;;;24.50
20733;BMP180;10527;52.124;5.196;2023-05-10T02:28:25;100720.00;;;24.50
20733;BMP180;10527;52.124;5.196;2023-05-10T02:30:54;100724.00;;;24.40
20733;BMP180;10527;52.124;5.196;2023-05-10T02:33:22;100724.00;;;24.40
20733;BMP180;10527;52.124;5.196;2023-05-10T02:35:52;100725.00;;;24.40
20733;BMP180;10527;52.124;5.196;2023-05-10T02:38:22;100733.00;;;24.40
20733;BMP180;10527;52.124;5.196;2023-05-10T02:40:51;100736.00;;;24.30
20733;BMP180;10527;52.124;5.196;2023-05-10T02:43:20;100729.00;;;24.30
20733;BMP180;10527;52.124;5.196;2023-05-10T02:45:49;100728.00;;;24.30
20733;BMP180;10527;52.124;5.196;2023-05-10T02:48:17;100739.00;;;24.30
20733;BMP180;10527;52.124;5.196;2023-05-10T02:50:45;100734.00;;;24.30
20733;BMP180;10527;52.124;5.196;2023-05-10T02:53:22;100732.00;;;24.20
20733;BMP180;10527;52.124;5.196;2023-05-10T02:55:52;100740.00;;;24.20
20733;BMP180;10527;52.124;5.196;2023-05-10T02:58:23;100739.00;;;24.20
20733;BMP180;10527;52.124;5.196;2023-05-10T03:00:50;100741.00;;;24.20
20733;BMP180;10527;52.124;5.196;2023-05-10T03:03:17;100740.00;;;24.20
20733;BMP180;10527;52.124;5.196;2023-05-10T03:05:44;100744.00;;;24.20
20733;BMP180;10527;52.124;5.196;2023-05-10T03:08:11;100742.00;;;24.20
20733;BMP180;10527;52.124;5.196;2023-05-10T03:13:59;100737.00;;;24.20
20733;BMP180;10527;52.124;5.196;2023-05-10T03:16:56;100741.00;;;24.10
20733;BMP180;10527;52.124;5.196;2023-05-10T03:22:10;100739.00;;;24.10
20733;BMP180;10527;52.124;5.196;2023-05-10T03:24:42;100732.00;;;24.10
20733;BMP180;10527;52.124;5.196;2023-05-10T03:27:11;100738.00;;;24.20
20733;BMP180;10527;52.124;5.196;2023-05-10T03:29:39;100743.00;;;24.20
20733;BMP180;10527;52.124;5.196;2023-05-10T03:32:06;100750.00;;;24.20
20733;BMP180;10527;52.124;5.196;2023-05-10T03:34:33;100752.00;;;24.20
20733;BMP180;10527;52.124;5.196;2023-05-10T03:37:00;100746.00;;;24.20
20733;BMP180;10527;52.124;5.196;2023-05-10T03:39:26;100747.00;;;24.20
20733;BMP180;10527;52.124;5.196;2023-05-10T03:41:53;100745.00;;;24.20
20733;BMP180;10527;52.124;5.196;2023-05-10T03:44:20;100754.00;;;24.20
20733;BMP180;10527;52.124;5.196;2023-05-10T03:46:47;100749.00;;;24.20
20733;BMP180;10527;52.124;5.196;2023-05-10T03:49:14;100743.00;;;24.20
20733;BMP180;10527;52.124;5.196;2023-05-10T03:51:41;100749.00;;;24.20
20733;BMP180;10527;52.124;5.196;2023-05-10T03:54:08;100755.00;;;24.20
20733;BMP180;10527;52.124;5.196;2023-05-10T03:56:37;100752.00;;;24.20
20733;BMP180;10527;52.124;5.196;2023-05-10T03:59:04;100746.00;;;24.20
20733;BMP180;10527;52.124;5.196;2023-05-10T04:01:34;100747.00;;;24.20
20733;BMP180;10527;52.124;5.196;2023-05-10T04:04:01;100755.00;;;24.20
20733;BMP180;10527;52.124;5.196;2023-05-10T04:06:28;100755.00;;;24.20
20733;BMP180;10527;52.124;5.196;2023-05-10T04:08:55;100752.00;;;24.20
20733;BMP180;10527;52.124;5.196;2023-05-10T04:11:22;100755.00;;;24.20
20733;BMP180;10527;52.124;5.196;2023-05-10T04:13:49;100753.00;;;24.20
20733;BMP180;10527;52.124;5.196;2023-05-10T04:16:16;100762.00;;;24.20
20733;BMP180;10527;52.124;5.196;2023-05-10T04:18:42;100755.00;;;24.20
20733;BMP180;10527;52.124;5.196;2023-05-10T04:21:13;100753.00;;;24.20
20733;BMP180;10527;52.124;5.196;2023-05-10T04:23:42;100756.00;;;24.20
20733;BMP180;10527;52.124;5.196;2023-05-10T04:26:11;100761.00;;;24.20
20733;BMP180;10527;52.124;5.196;2023-05-10T04:28:38;100756.00;;;24.20
20733;BMP180;10527;52.124;5.196;2023-05-10T04:31:07;100768.00;;;24.20
20733;BMP180;10527;52.124;5.196;2023-05-10T04:33:36;100770.00;;;24.10
20733;BMP180;10527;52.124;5.196;2023-05-10T04:36:03;100760.00;;;24.10
20733;BMP180;10527;52.124;5.196;2023-05-10T04:38:31;100762.00;;;24.10
20733;BMP180;10527;52.124;5.196;2023-05-10T04:41:09;100767.00;;;24.10
20733;BMP180;10527;52.124;5.196;2023-05-10T04:43:38;100764.00;;;24.10
20733;BMP180;10527;52.124;5.196;2023-05-10T04:46:05;100758.00;;;24.10
20733;BMP180;10527;52.124;5.196;2023-05-10T04:48:34;100759.00;;;24.10
20733;BMP180;10527;52.124;5.196;2023-05-10T04:51:01;100767.00;;;24.10
20733;BMP180;10527;52.124;5.196;2023-05-10T04:53:27;100768.00;;;24.10
20733;BMP180;10527;52.124;5.196;2023-05-10T04:55:54;100765.00;;;24.20
20733;BMP180;10527;52.124;5.196;2023-05-10T04:58:21;100772.00;;;24.10
20733;BMP180;10527;52.124;5.196;2023-05-10T05:00:48;100774.00;;;24.10
20733;BMP180;10527;52.124;5.196;2023-05-10T05:03:15;100781.00;;;24.10
20733;BMP180;10527;52.124;5.196;2023-05-10T05:05:42;100783.00;;;24.10
20733;BMP180;10527;52.124;5.196;2023-05-10T05:08:10;100784.00;;;24.10
20733;BMP180;10527;52.124;5.196;2023-05-10T05:10:37;100783.00;;;24.10
20733;BMP180;10527;52.124;5.196;2023-05-10T05:13:03;100789.00;;;24.10
20733;BMP180;10527;52.124;5.196;2023-05-10T05:15:30;100791.00;;;24.10
20733;BMP180;10527;52.124;5.196;2023-05-10T05:17:57;100798.00;;;24.10
20733;BMP180;10527;52.124;5.196;2023-05-10T05:20:24;100800.00;;;24.10
20733;BMP180;10527;52.124;5.196;2023-05-10T05:22:51;100800.00;;;24.10
20733;BMP180;10527;52.124;5.196;2023-05-10T05:25:18;100796.00;;;24.10
20733;BMP180;10527;52.124;5.196;2023-05-10T05:27:44;100799.00;;;24.10
20733;BMP180;10527;52.124;5.196;2023-05-10T05:30:11;100803.00;;;24.10
20733;BMP180;10527;52.124;5.196;2023-05-10T05:32:39;100808.00;;;24.10
20733;BMP180;10527;52.124;5.196;2023-05-10T05:35:06;100811.00;;;24.10
20733;BMP180;10527;52.124;5.196;2023-05-10T05:37:33;100812.00;;;24.10
20733;BMP180;10527;52.124;5.196;2023-05-10T05:40:00;100820.00;;;24.10
20733;BMP180;10527;52.124;5.196;2023-05-10T05:42:28;100824.00;;;24.10
20733;BMP180;10527;52.124;5.196;2023-05-10T05:44:55;100831.00;;;24.10
20733;BMP180;10527;52.124;5.196;2023-05-10T05:47:22;100825.00;;;24.10
20733;BMP180;10527;52.124;5.196;2023-05-10T05:49:49;100821.00;;;24.00
20733;BMP180;10527;52.124;5.196;2023-05-10T05:52:16;100828.00;;;24.00
20733;BMP180;10527;52.124;5.196;2023-05-10T05:54:43;100833.00;;;24.00
20733;BMP180;10527;52.124;5.196;2023-05-10T05:57:10;100831.00;;;24.00
20733;BMP180;10527;52.124;5.196;2023-05-10T05:59:37;100826.00;;;24.00
20733;BMP180;10527;52.124;5.196;2023-05-10T06:02:09;100832.00;;;24.00
20733;BMP180;10527;52.124;5.196;2023-05-10T06:04:36;100834.00;;;24.00
20733;BMP180;10527;52.124;5.196;2023-05-10T06:07:08;100847.00;;;24.00
20733;BMP180;10527;52.124;5.196;2023-05-10T06:09:35;100848.00;;;24.00
20733;BMP180;10527;52.124;5.196;2023-05-10T06:12:02;100850.00;;;24.00
20733;BMP180;10527;52.124;5.196;2023-05-10T06:14:31;100847.00;;;24.00
20733;BMP180;10527;52.124;5.196;2023-05-10T06:16:58;100855.00;;;24.00
20733;BMP180;10527;52.124;5.196;2023-05-10T06:19:29;100856.00;;;24.00
20733;BMP180;10527;52.124;5.196;2023-05-10T06:21:55;100861.00;;;24.00
20733;BMP180;10527;52.124;5.196;2023-05-10T06:24:22;100858.00;;;24.00
20733;BMP180;10527;52.124;5.196;2023-05-10T06:26:51;100855.00;;;24.00
20733;BMP180;10527;52.124;5.196;2023-05-10T06:29:18;100858.00;;;24.10
20733;BMP180;10527;52.124;5.196;2023-05-10T06:31:46;100852.00;;;24.00
20733;BMP180;10527;52.124;5.196;2023-05-10T06:34:13;100856.00;;;24.00
20733;BMP180;10527;52.124;5.196;2023-05-10T06:36:40;100858.00;;;24.00
20733;BMP180;10527;52.124;5.196;2023-05-10T06:39:07;100861.00;;;24.00
20733;BMP180;10527;52.124;5.196;2023-05-10T06:41:36;100858.00;;;24.10
20733;BMP180;10527;52.124;5.196;2023-05-10T06:44:03;100860.00;;;24.00
20733;BMP180;10527;52.124;5.196;2023-05-10T06:46:30;100861.00;;;24.10
20733;BMP180;10527;52.124;5.196;2023-05-10T06:48:57;100860.00;;;24.10
20733;BMP180;10527;52.124;5.196;2023-05-10T06:51:24;100857.00;;;24.10
20733;BMP180;10527;52.124;5.196;2023-05-10T06:53:51;100858.00;;;24.10
20733;BMP180;10527;52.124;5.196;2023-05-10T06:56:17;100859.00;;;24.10
20733;BMP180;10527;52.124;5.196;2023-05-10T06:58:45;100863.00;;;24.10
20733;BMP180;10527;52.124;5.196;2023-05-10T07:01:14;100873.00;;;24.10
20733;BMP180;10527;52.124;5.196;2023-05-10T07:03:41;100867.00;;;24.10
20733;BMP180;10527;52.124;5.196;2023-05-10T07:06:07;100864.00;;;24.20
20733;BMP180;10527;52.124;5.196;2023-05-10T07:08:44;100874.00;;;24.20
20733;BMP180;10527;52.124;5.196;2023-05-10T07:11:11;100875.00;;;24.20
20733;BMP180;10527;52.124;5.196;2023-05-10T07:13:38;100874.00;;;24.30
20733;BMP180;10527;52.124;5.196;2023-05-10T07:16:07;100880.00;;;24.30
20733;BMP180;10527;52.124;5.196;2023-05-10T07:18:35;100877.00;;;24.30
20733;BMP180;10527;52.124;5.196;2023-05-10T07:21:02;100874.00;;;24.30
20733;BMP180;10527;52.124;5.196;2023-05-10T07:23:29;100885.00;;;24.30
20733;BMP180;10527;52.124;5.196;2023-05-10T07:25:56;100891.00;;;24.40
20733;BMP180;10527;52.124;5.196;2023-05-10T07:28:24;100891.00;;;24.40
20733;BMP180;10527;52.124;5.196;2023-05-10T07:30:50;100892.00;;;24.40
20733;BMP180;10527;52.124;5.196;2023-05-10T07:33:17;100905.00;;;24.40
20733;BMP180;10527;52.124;5.196;2023-05-10T07:35:44;100908.00;;;24.40
20733;BMP180;10527;52.124;5.196;2023-05-10T07:38:11;100908.00;;;24.40
20733;BMP180;10527;52.124;5.196;2023-05-10T07:40:39;100908.00;;;24.40
20733;BMP180;10527;52.124;5.196;2023-05-10T07:43:06;100907.00;;;24.40
20733;BMP180;10527;52.124;5.196;2023-05-10T07:45:33;100910.00;;;24.50
20733;BMP180;10527;52.124;5.196;2023-05-10T07:48:01;100910.00;;;24.50
20733;BMP180;10527;52.124;5.196;2023-05-10T07:50:28;100918.00;;;24.50
20733;BMP180;10527;52.124;5.196;2023-05-10T07:52:55;100908.00;;;24.50
20733;BMP180;10527;52.124;5.196;2023-05-10T07:55:21;100911.00;;;24.50
20733;BMP180;10527;52.124;5.196;2023-05-10T07:57:48;100909.00;;;24.50
20733;BMP180;10527;52.124;5.196;2023-05-10T08:00:19;100911.00;;;24.50
20733;BMP180;10527;52.124;5.196;2023-05-10T08:02:47;100916.00;;;24.60
20733;BMP180;10527;52.124;5.196;2023-05-10T08:05:14;100913.00;;;24.60
20733;BMP180;10527;52.124;5.196;2023-05-10T08:07:42;100922.00;;;24.60
20733;BMP180;10527;52.124;5.196;2023-05-10T08:10:09;100921.00;;;24.60
20733;BMP180;10527;52.124;5.196;2023-05-10T08:12:38;100924.00;;;24.70
20733;BMP180;10527;52.124;5.196;2023-05-10T08:15:06;100930.00;;;24.70
20733;BMP180;10527;52.124;5.196;2023-05-10T08:17:33;100926.00;;;24.70
20733;BMP180;10527;52.124;5.196;2023-05-10T08:20:00;100936.00;;;24.80
20733;BMP180;10527;52.124;5.196;2023-05-10T08:22:27;100938.00;;;24.80
20733;BMP180;10527;52.124;5.196;2023-05-10T08:24:54;100933.00;;;24.80
20733;BMP180;10527;52.124;5.196;2023-05-10T08:27:21;100929.00;;;24.90
20733;BMP180;10527;52.124;5.196;2023-05-10T08:29:48;100940.00;;;24.90
20733;BMP180;10527;52.124;5.196;2023-05-10T08:32:17;100946.00;;;24.90
20733;BMP180;10527;52.124;5.196;2023-05-10T08:34:44;100950.00;;;24.90
20733;BMP180;10527;52.124;5.196;2023-05-10T08:37:10;100957.00;;;24.90
20733;BMP180;10527;52.124;5.196;2023-05-10T08:39:40;100955.00;;;24.90
20733;BMP180;10527;52.124;5.196;2023-05-10T08:42:09;100964.00;;;24.90
20733;BMP180;10527;52.124;5.196;2023-05-10T08:44:36;100964.00;;;24.90
20733;BMP180;10527;52.124;5.196;2023-05-10T08:47:09;100970.00;;;24.90
20733;BMP180;10527;52.124;5.196;2023-05-10T08:49:40;100968.00;;;24.90
20733;BMP180;10527;52.124;5.196;2023-05-10T08:52:09;100971.00;;;24.90
20733;BMP180;10527;52.124;5.196;2023-05-10T08:54:38;100979.00;;;24.90
20733;BMP180;10527;52.124;5.196;2023-05-10T08:57:05;100976.00;;;24.90
20733;BMP180;10527;52.124;5.196;2023-05-10T08:59:32;100973.00;;;24.90
20733;BMP180;10527;52.124;5.196;2023-05-10T09:02:00;100973.00;;;25.00
20733;BMP180;10527;52.124;5.196;2023-05-10T09:04:30;100980.00;;;25.00
20733;BMP180;10527;52.124;5.196;2023-05-10T09:06:57;100974.00;;;25.00
20733;BMP180;10527;52.124;5.196;2023-05-10T09:09:25;100978.00;;;25.10
20733;BMP180;10527;52.124;5.196;2023-05-10T09:11:55;100981.00;;;25.10
20733;BMP180;10527;52.124;5.196;2023-05-10T09:14:24;100984.00;;;25.10
20733;BMP180;10527;52.124;5.196;2023-05-10T09:16:52;100986.00;;;25.10
20733;BMP180;10527;52.124;5.196;2023-05-10T09:19:20;100986.00;;;25.10
20733;BMP180;10527;52.124;5.196;2023-05-10T09:21:48;100991.00;;;25.20
20733;BMP180;10527;52.124;5.196;2023-05-10T09:24:15;100985.00;;;25.20
20733;BMP180;10527;52.124;5.196;2023-05-10T09:26:48;100990.00;;;25.20
20733;BMP180;10527;52.124;5.196;2023-05-10T09:29:16;100991.00;;;25.20
20733;BMP180;10527;52.124;5.196;2023-05-10T09:31:53;100996.00;;;25.20
20733;BMP180;10527;52.124;5.196;2023-05-10T09:34:32;100992.00;;;25.20
20733;BMP180;10527;52.124;5.196;2023-05-10T09:37:03;100995.00;;;25.30
20733;BMP180;10527;52.124;5.196;2023-05-10T09:39:36;100994.00;;;25.30
20733;BMP180;10527;52.124;5.196;2023-05-10T09:42:07;101003.00;;;25.30
20733;BMP180;10527;52.124;5.196;2023-05-10T09:44:35;101001.00;;;25.40
20733;BMP180;10527;52.124;5.196;2023-05-10T09:47:03;100998.00;;;25.50
20733;BMP180;10527;52.124;5.196;2023-05-10T09:49:30;101003.00;;;25.50
20733;BMP180;10527;52.124;5.196;2023-05-10T09:52:04;101012.00;;;25.60
20733;BMP180;10527;52.124;5.196;2023-05-10T09:54:33;101005.00;;;25.60
20733;BMP180;10527;52.124;5.196;2023-05-10T09:57:01;101004.00;;;25.70
20733;BMP180;10527;52.124;5.196;2023-05-10T09:59:29;101007.00;;;25.70
20733;BMP180;10527;52.124;5.196;2023-05-10T10:01:58;101008.00;;;25.70
20733;BMP180;10527;52.124;5.196;2023-05-10T10:04:27;101022.00;;;25.70
20733;BMP180;10527;52.124;5.196;2023-05-10T10:07:03;101014.00;;;25.70
20733;BMP180;10527;52.124;5.196;2023-05-10T10:09:32;101018.00;;;25.70
20733;BMP180;10527;52.124;5.196;2023-05-10T10:12:01;101021.00;;;25.80
20733;BMP180;10527;52.124;5.196;2023-05-10T10:14:29;101024.00;;;25.80
20733;BMP180;10527;52.124;5.196;2023-05-10T10:16:56;101029.00;;;25.80
20733;BMP180;10527;52.124;5.196;2023-05-10T10:19:35;101021.00;;;25.80
20733;BMP180;10527;52.124;5.196;2023-05-10T10:22:03;101028.00;;;25.80
20733;BMP180;10527;52.124;5.196;2023-05-10T10:24:30;101020.00;;;25.90
20733;BMP180;10527;52.124;5.196;2023-05-10T10:36:04;101029.00;;;25.80
20733;BMP180;10527;52.124;5.196;2023-05-10T10:39:01;101037.00;;;25.80
20733;BMP180;10527;52.124;5.196;2023-05-10T10:41:35;101033.00;;;25.80
20733;BMP180;10527;52.124;5.196;2023-05-10T10:50:04;101031.00;;;25.90
20733;BMP180;10527;52.124;5.196;2023-05-10T10:57:32;101036.00;;;26.00
20733;BMP180;10527;52.124;5.196;2023-05-10T11:00:30;101034.00;;;26.10
20733;BMP180;10527;52.124;5.196;2023-05-10T11:03:12;101031.00;;;26.20
20733;BMP180;10527;52.124;5.196;2023-05-10T11:05:49;101040.00;;;26.20
20733;BMP180;10527;52.124;5.196;2023-05-10T11:11:06;101033.00;;;26.40
20733;BMP180;10527;52.124;5.196;2023-05-10T11:13:45;101036.00;;;26.40
20733;BMP180;10527;52.124;5.196;2023-05-10T11:16:24;101043.00;;;26.40
20733;BMP180;10527;52.124;5.196;2023-05-10T11:19:11;101042.00;;;26.40
20733;BMP180;10527;52.124;5.196;2023-05-10T11:24:32;101045.00;;;26.50
20733;BMP180;10527;52.124;5.196;2023-05-10T11:27:00;101037.00;;;26.50
20733;BMP180;10527;52.124;5.196;2023-05-10T11:29:27;101040.00;;;26.50
20733;BMP180;10527;52.124;5.196;2023-05-10T11:31:58;101053.00;;;26.50
20733;BMP180;10527;52.124;5.196;2023-05-10T11:34:29;101049.00;;;26.50
20733;BMP180;10527;52.124;5.196;2023-05-10T11:36:57;101050.00;;;26.50
20733;BMP180;10527;52.124;5.196;2023-05-10T11:39:30;101048.00;;;26.50
20733;BMP180;10527;52.124;5.196;2023-05-10T11:41:58;101047.00;;;26.50
20733;BMP180;10527;52.124;5.196;2023-05-10T11:44:32;101048.00;;;26.50
20733;BMP180;10527;52.124;5.196;2023-05-10T11:47:01;101045.00;;;26.50
20733;BMP180;10527;52.124;5.196;2023-05-10T11:49:28;101044.00;;;26.50
20733;BMP180;10527;52.124;5.196;2023-05-10T11:52:09;101048.00;;;26.60
20733;BMP180;10527;52.124;5.196;2023-05-10T11:54:37;101051.00;;;26.70
20733;BMP180;10527;52.124;5.196;2023-05-10T11:57:04;101052.00;;;26.70
20733;BMP180;10527;52.124;5.196;2023-05-10T11:59:31;101055.00;;;26.80
20733;BMP180;10527;52.124;5.196;2023-05-10T12:01:59;101054.00;;;26.90
20733;BMP180;10527;52.124;5.196;2023-05-10T12:04:26;101058.00;;;27.00
20733;BMP180;10527;52.124;5.196;2023-05-10T12:06:56;101062.00;;;27.00
20733;BMP180;10527;52.124;5.196;2023-05-10T12:09:23;101063.00;;;27.10
20733;BMP180;10527;52.124;5.196;2023-05-10T12:12:09;101054.00;;;27.20
20733;BMP180;10527;52.124;5.196;2023-05-10T12:14:36;101053.00;;;27.30
20733;BMP180;10527;52.124;5.196;2023-05-10T12:17:03;101055.00;;;27.30
20733;BMP180;10527;52.124;5.196;2023-05-10T12:19:37;101055.00;;;27.40
20733;BMP180;10527;52.124;5.196;2023-05-10T12:22:05;101057.00;;;27.40
20733;BMP180;10527;52.124;5.196;2023-05-10T12:24:36;101061.00;;;27.40
20733;BMP180;10527;52.124;5.196;2023-05-10T12:27:05;101061.00;;;27.40
20733;BMP180;10527;52.124;5.196;2023-05-10T12:29:34;101054.00;;;27.30
20733;BMP180;10527;52.124;5.196;2023-05-10T12:32:02;101059.00;;;27.30
20733;BMP180;10527;52.124;5.196;2023-05-10T12:34:34;101065.00;;;27.30
20733;BMP180;10527;52.124;5.196;2023-05-10T12:37:03;101071.00;;;27.30
20733;BMP180;10527;52.124;5.196;2023-05-10T12:39:41;101068.00;;;27.30
20733;BMP180;10527;52.124;5.196;2023-05-10T12:42:16;101079.00;;;27.20
20733;BMP180;10527;52.124;5.196;2023-05-10T12:44:43;101082.00;;;27.20
20733;BMP180;10527;52.124;5.196;2023-05-10T12:47:10;101086.00;;;27.10
20733;BMP180;10527;52.124;5.196;2023-05-10T12:49:37;101089.00;;;27.00
20733;BMP180;10527;52.124;5.196;2023-05-10T12:52:04;101095.00;;;26.90
20733;BMP180;10527;52.124;5.196;2023-05-10T12:54:31;101099.00;;;26.70
20733;BMP180;10527;52.124;5.196;2023-05-10T12:56:57;101101.00;;;26.50
20733;BMP180;10527;52.124;5.196;2023-05-10T12:59:24;101107.00;;;26.40
20733;BMP180;10527;52.124;5.196;2023-05-10T13:01:51;101110.00;;;26.20
20733;BMP180;10527;52.124;5.196;2023-05-10T13:04:18;101112.00;;;26.10
20733;BMP180;10527;52.124;5.196;2023-05-10T13:06:45;101115.00;;;26.00
20733;BMP180;10527;52.124;5.196;2023-05-10T13:09:11;101113.00;;;25.90
20733;BMP180;10527;52.124;5.196;2023-05-10T13:11:38;101116.00;;;25.80
20733;BMP180;10527;52.124;5.196;2023-05-10T13:14:05;101116.00;;;25.70
20733;BMP180;10527;52.124;5.196;2023-05-10T13:16:32;101115.00;;;25.60
20733;BMP180;10527;52.124;5.196;2023-05-10T13:18:59;101118.00;;;25.50
20733;BMP180;10527;52.124;5.196;2023-05-10T13:21:26;101111.00;;;25.50
20733;BMP180;10527;52.124;5.196;2023-05-10T13:23:53;101124.00;;;25.50
20733;BMP180;10527;52.124;5.196;2023-05-10T13:26:21;101125.00;;;25.50
20733;BMP180;10527;52.124;5.196;2023-05-10T13:28:48;101136.00;;;25.50
20733;BMP180;10527;52.124;5.196;2023-05-10T13:31:16;101129.00;;;25.50
20733;BMP180;10527;52.124;5.196;2023-05-10T13:33:45;101127.00;;;25.50
20733;BMP180;10527;52.124;5.196;2023-05-10T13:36:12;101122.00;;;25.50
20733;BMP180;10527;52.124;5.196;2023-05-10T13:38:38;101134.00;;;25.50
20733;BMP180;10527;52.124;5.196;2023-05-10T13:41:05;101135.00;;;25.50
20733;BMP180;10527;52.124;5.196;2023-05-10T13:43:32;101133.00;;;25.50
20733;BMP180;10527;52.124;5.196;2023-05-10T13:45:59;101130.00;;;25.50
20733;BMP180;10527;52.124;5.196;2023-05-10T13:48:26;101130.00;;;25.50
20733;BMP180;10527;52.124;5.196;2023-05-10T13:50:53;101127.00;;;25.50
20733;BMP180;10527;52.124;5.196;2023-05-10T13:53:20;101128.00;;;25.50
20733;BMP180;10527;52.124;5.196;2023-05-10T13:55:49;101136.00;;;25.50
20733;BMP180;10527;52.124;5.196;2023-05-10T13:58:18;101130.00;;;25.60
20733;BMP180;10527;52.124;5.196;2023-05-10T14:00:44;101132.00;;;25.60
20733;BMP180;10527;52.124;5.196;2023-05-10T14:03:11;101127.00;;;25.60
20733;BMP180;10527;52.124;5.196;2023-05-10T14:05:38;101122.00;;;25.60
20733;BMP180;10527;52.124;5.196;2023-05-10T14:08:05;101120.00;;;25.60
20733;BMP180;10527;52.124;5.196;2023-05-10T14:10:33;101123.00;;;25.70
20733;BMP180;10527;52.124;5.196;2023-05-10T14:13:00;101119.00;;;25.70
20733;BMP180;10527;52.124;5.196;2023-05-10T14:15:27;101126.00;;;25.70
20733;BMP180;10527;52.124;5.196;2023-05-10T14:17:54;101129.00;;;25.70
20733;BMP180;10527;52.124;5.196;2023-05-10T14:20:21;101127.00;;;25.80
20733;BMP180;10527;52.124;5.196;2023-05-10T14:22:47;101126.00;;;25.80
20733;BMP180;10527;52.124;5.196;2023-05-10T14:25:14;101130.00;;;25.80
20733;BMP180;10527;52.124;5.196;2023-05-10T14:27:42;101130.00;;;25.80
20733;BMP180;10527;52.124;5.196;2023-05-10T14:30:09;101122.00;;;25.80
20733;BMP180;10527;52.124;5.196;2023-05-10T14:32:36;101121.00;;;25.80
20733;BMP180;10527;52.124;5.196;2023-05-10T14:35:04;101121.00;;;25.80
20733;BMP180;10527;52.124;5.196;2023-05-10T14:37:32;101114.00;;;25.90
20733;BMP180;10527;52.124;5.196;2023-05-10T14:39:59;101118.00;;;25.90
20733;BMP180;10527;52.124;5.196;2023-05-10T14:42:25;101113.00;;;25.90
20733;BMP180;10527;52.124;5.196;2023-05-10T14:44:52;101126.00;;;26.00